sensor_id;sensor_type;location;lat;lon;timestamp;P1;durP1;ratioP1;P2;durP2;ratioP2
63378;SDS011;49509;54.996;73.270;2022-07-04T00:00:12;12.40;;;11.20;;
63378;SDS011;49509;54.996;73.270;2022-07-04T00:02:38;8.25;;;6.25;;
63378;SDS011;49509;54.996;73.270;2022-07-04T00:05:12;5.20;;;5.20;;
63378;SDS011;49509;54.996;73.270;2022-07-04T00:07:41;5.00;;;5.00;;
63378;SDS011;49509;54.996;73.270;2022-07-04T00:10:08;6.50;;;6.25;;
63378;SDS011;49509;54.996;73.270;2022-07-04T00:12:35;8.25;;;7.00;;
63378;SDS011;49509;54.996;73.270;2022-07-04T00:15:07;8.25;;;8.00;;
63378;SDS011;49509;54.996;73.270;2022-07-04T00:17:34;6.25;;;6.25;;
63378;SDS011;49509;54.996;73.270;2022-07-04T00:20:01;7.25;;;6.75;;
63378;SDS011;49509;54.996;73.270;2022-07-04T00:22:28;5.50;;;5.50;;
63378;SDS011;49509;54.996;73.270;2022-07-04T00:24:54;7.00;;;7.00;;
63378;SDS011;49509;54.996;73.270;2022-07-04T00:27:22;7.20;;;5.80;;
63378;SDS011;49509;54.996;73.270;2022-07-04T00:29:49;6.80;;;6.80;;
63378;SDS011;49509;54.996;73.270;2022-07-04T00:32:15;5.50;;;5.00;;
63378;SDS011;49509;54.996;73.270;2022-07-04T00:34:41;6.75;;;6.75;;
63378;SDS011;49509;54.996;73.270;2022-07-04T00:37:08;6.00;;;6.00;;
63378;SDS011;49509;54.996;73.270;2022-07-04T00:39:34;7.50;;;6.00;;
63378;SDS011;49509;54.996;73.270;2022-07-04T00:42:01;5.75;;;5.75;;
63378;SDS011;49509;54.996;73.270;2022-07-04T00:44:27;5.75;;;5.75;;
63378;SDS011;49509;54.996;73.270;2022-07-04T00:46:54;6.50;;;6.50;;
63378;SDS011;49509;54.996;73.270;2022-07-04T00:49:26;6.25;;;6.00;;
63378;SDS011;49509;54.996;73.270;2022-07-04T00:51:52;6.75;;;6.75;;
63378;SDS011;49509;54.996;73.270;2022-07-04T00:54:18;7.60;;;7.60;;
63378;SDS011;49509;54.996;73.270;2022-07-04T00:56:47;6.40;;;6.40;;
63378;SDS011;49509;54.996;73.270;2022-07-04T00:59:13;6.40;;;6.40;;
63378;SDS011;49509;54.996;73.270;2022-07-04T01:01:40;4.80;;;4.20;;
63378;SDS011;49509;54.996;73.270;2022-07-04T01:04:07;10.40;;;9.40;;
63378;SDS011;49509;54.996;73.270;2022-07-04T01:06:33;6.00;;;6.00;;
63378;SDS011;49509;54.996;73.270;2022-07-04T01:09:00;5.60;;;4.20;;
63378;SDS011;49509;54.996;73.270;2022-07-04T01:11:26;6.20;;;6.20;;
63378;SDS011;49509;54.996;73.270;2022-07-04T01:14:00;7.00;;;6.00;;
63378;SDS011;49509;54.996;73.270;2022-07-04T01:16:28;4.60;;;4.60;;
63378;SDS011;49509;54.996;73.270;2022-07-04T01:18:54;5.60;;;5.60;;
63378;SDS011;49509;54.996;73.270;2022-07-04T01:21:21;5.00;;;4.00;;
63378;SDS011;49509;54.996;73.270;2022-07-04T01:23:47;4.00;;;4.00;;
63378;SDS011;49509;54.996;73.270;2022-07-04T01:26:14;6.40;;;6.40;;
63378;SDS011;49509;54.996;73.270;2022-07-04T01:28:45;5.00;;;5.00;;
63378;SDS011;49509;54.996;73.270;2022-07-04T01:31:12;5.20;;;5.20;;
63378;SDS011;49509;54.996;73.270;2022-07-04T01:33:38;3.00;;;3.00;;
63378;SDS011;49509;54.996;73.270;2022-07-04T01:36:05;4.20;;;4.20;;
63378;SDS011;49509;54.996;73.270;2022-07-04T01:38:36;2.80;;;2.80;;
63378;SDS011;49509;54.996;73.270;2022-07-04T01:41:03;4.80;;;4.80;;
63378;SDS011;49509;54.996;73.270;2022-07-04T01:43:29;4.60;;;4.20;;
63378;SDS011;49509;54.996;73.270;2022-07-04T01:45:55;4.60;;;4.20;;
63378;SDS011;49509;54.996;73.270;2022-07-04T01:48:22;5.20;;;5.20;;
63378;SDS011;49509;54.996;73.270;2022-07-04T01:50:48;5.40;;;4.40;;
63378;SDS011;49509;54.996;73.270;2022-07-04T01:53:14;5.80;;;5.00;;
63378;SDS011;49509;54.996;73.270;2022-07-04T01:55:41;4.20;;;4.20;;
63378;SDS011;49509;54.996;73.270;2022-07-04T01:58:07;6.00;;;6.00;;
63378;SDS011;49509;54.996;73.270;2022-07-04T02:00:37;4.60;;;4.60;;
63378;SDS011;49509;54.996;73.270;2022-07-04T02:03:26;3.40;;;3.00;;
63378;SDS011;49509;54.996;73.270;2022-07-04T02:05:52;4.00;;;4.00;;
63378;SDS011;49509;54.996;73.270;2022-07-04T02:08:21;1.00;;;1.00;;
63378;SDS011;49509;54.996;73.270;2022-07-04T02:10:47;3.80;;;3.80;;
63378;SDS011;49509;54.996;73.270;2022-07-04T02:13:13;2.40;;;2.40;;
63378;SDS011;49509;54.996;73.270;2022-07-04T02:15:41;4.00;;;4.00;;
63378;SDS011;49509;54.996;73.270;2022-07-04T02:18:08;4.60;;;4.60;;
63378;SDS011;49509;54.996;73.270;2022-07-04T02:20:35;2.00;;;2.00;;
63378;SDS011;49509;54.996;73.270;2022-07-04T02:23:11;4.40;;;4.00;;
63378;SDS011;49509;54.996;73.270;2022-07-04T02:25:37;2.60;;;2.60;;
63378;SDS011;49509;54.996;73.270;2022-07-04T02:28:05;5.00;;;4.60;;
63378;SDS011;49509;54.996;73.270;2022-07-04T02:30:33;6.60;;;6.40;;
63378;SDS011;49509;54.996;73.270;2022-07-04T02:32:59;3.40;;;3.40;;
63378;SDS011;49509;54.996;73.270;2022-07-04T02:35:26;3.00;;;3.00;;
63378;SDS011;49509;54.996;73.270;2022-07-04T02:37:53;4.40;;;4.40;;
63378;SDS011;49509;54.996;73.270;2022-07-04T02:40:19;6.00;;;6.00;;
63378;SDS011;49509;54.996;73.270;2022-07-04T02:42:46;4.60;;;4.60;;
63378;SDS011;49509;54.996;73.270;2022-07-04T02:45:15;1.40;;;1.40;;
63378;SDS011;49509;54.996;73.270;2022-07-04T02:47:46;3.00;;;3.00;;
63378;SDS011;49509;54.996;73.270;2022-07-04T02:50:17;2.20;;;2.20;;
63378;SDS011;49509;54.996;73.270;2022-07-04T02:52:44;5.00;;;4.00;;
63378;SDS011;49509;54.996;73.270;2022-07-04T02:55:10;5.00;;;5.00;;
63378;SDS011;49509;54.996;73.270;2022-07-04T02:57:37;3.00;;;3.00;;
63378;SDS011;49509;54.996;73.270;2022-07-04T03:00:08;4.00;;;4.00;;
63378;SDS011;49509;54.996;73.270;2022-07-04T03:02:35;4.60;;;4.60;;
63378;SDS011;49509;54.996;73.270;2022-07-04T03:05:01;3.00;;;3.00;;
63378;SDS011;49509;54.996;73.270;2022-07-04T03:07:33;4.00;;;3.80;;
63378;SDS011;49509;54.996;73.270;2022-07-04T03:09:59;2.80;;;2.80;;
63378;SDS011;49509;54.996;73.270;2022-07-04T03:12:26;4.20;;;4.20;;
63378;SDS011;49509;54.996;73.270;2022-07-04T03:14:52;3.60;;;3.60;;
63378;SDS011;49509;54.996;73.270;2022-07-04T03:17:19;5.40;;;5.40;;
63378;SDS011;49509;54.996;73.270;2022-07-04T03:19:49;3.40;;;3.40;;
63378;SDS011;49509;54.996;73.270;2022-07-04T03:22:15;3.80;;;3.80;;
63378;SDS011;49509;54.996;73.270;2022-07-04T03:24:42;5.20;;;5.20;;
63378;SDS011;49509;54.996;73.270;2022-07-04T03:27:13;3.80;;;3.80;;
63378;SDS011;49509;54.996;73.270;2022-07-04T03:29:40;2.20;;;1.80;;
63378;SDS011;49509;54.996;73.270;2022-07-04T03:32:06;4.00;;;4.00;;
63378;SDS011;49509;54.996;73.270;2022-07-04T03:34:33;3.00;;;3.00;;
63378;SDS011;49509;54.996;73.270;2022-07-04T03:36:59;5.00;;;5.00;;
63378;SDS011;49509;54.996;73.270;2022-07-04T03:39:27;3.20;;;3.20;;
63378;SDS011;49509;54.996;73.270;2022-07-04T03:41:53;5.80;;;4.60;;
63378;SDS011;49509;54.996;73.270;2022-07-04T03:44:19;5.00;;;5.00;;
63378;SDS011;49509;54.996;73.270;2022-07-04T03:46:46;4.00;;;4.00;;
63378;SDS011;49509;54.996;73.270;2022-07-04T03:49:13;6.00;;;5.40;;
63378;SDS011;49509;54.996;73.270;2022-07-04T03:51:39;3.20;;;3.20;;
63378;SDS011;49509;54.996;73.270;2022-07-04T03:54:06;5.00;;;5.00;;
63378;SDS011;49509;54.996;73.270;2022-07-04T03:56:32;6.20;;;6.20;;
63378;SDS011;49509;54.996;73.270;2022-07-04T03:58:59;4.00;;;4.00;;
63378;SDS011;49509;54.996;73.270;2022-07-04T04:01:25;3.00;;;2.20;;
63378;SDS011;49509;54.996;73.270;2022-07-04T04:03:55;5.00;;;4.20;;
63378;SDS011;49509;54.996;73.270;2022-07-04T04:06:44;5.00;;;4.40;;
63378;SDS011;49509;54.996;73.270;2022-07-04T04:09:11;5.00;;;5.00;;
63378;SDS011;49509;54.996;73.270;2022-07-04T04:11:42;7.60;;;7.60;;
63378;SDS011;49509;54.996;73.270;2022-07-04T04:14:20;5.60;;;4.80;;
63378;SDS011;49509;54.996;73.270;2022-07-04T04:16:55;7.80;;;5.80;;
63378;SDS011;49509;54.996;73.270;2022-07-04T04:19:21;19.00;;;18.80;;
63378;SDS011;49509;54.996;73.270;2022-07-04T04:21:47;18.00;;;17.00;;
63378;SDS011;49509;54.996;73.270;2022-07-04T04:24:14;20.60;;;18.80;;
63378;SDS011;49509;54.996;73.270;2022-07-04T04:26:40;18.60;;;17.40;;
63378;SDS011;49509;54.996;73.270;2022-07-04T04:29:07;19.00;;;18.40;;
63378;SDS011;49509;54.996;73.270;2022-07-04T04:31:33;20.80;;;18.40;;
63378;SDS011;49509;54.996;73.270;2022-07-04T04:34:00;16.60;;;15.00;;
63378;SDS011;49509;54.996;73.270;2022-07-04T04:36:26;7.20;;;6.40;;
63378;SDS011;49509;54.996;73.270;2022-07-04T04:38:53;8.00;;;8.00;;
63378;SDS011;49509;54.996;73.270;2022-07-04T04:41:19;5.40;;;4.80;;
63378;SDS011;49509;54.996;73.270;2022-07-04T04:43:46;5.80;;;5.80;;
63378;SDS011;49509;54.996;73.270;2022-07-04T04:46:12;4.40;;;3.80;;
63378;SDS011;49509;54.996;73.270;2022-07-04T04:48:38;4.00;;;3.00;;
63378;SDS011;49509;54.996;73.270;2022-07-04T04:51:05;4.00;;;4.00;;
63378;SDS011;49509;54.996;73.270;2022-07-04T04:53:32;1.60;;;1.60;;
63378;SDS011;49509;54.996;73.270;2022-07-04T04:55:58;4.00;;;4.00;;
63378;SDS011;49509;54.996;73.270;2022-07-04T04:58:25;2.20;;;2.20;;
63378;SDS011;49509;54.996;73.270;2022-07-04T05:00:51;4.80;;;4.40;;
63378;SDS011;49509;54.996;73.270;2022-07-04T05:03:18;4.00;;;4.00;;
63378;SDS011;49509;54.996;73.270;2022-07-04T05:05:44;2.00;;;1.80;;
63378;SDS011;49509;54.996;73.270;2022-07-04T05:08:21;5.20;;;3.80;;
63378;SDS011;49509;54.996;73.270;2022-07-04T05:10:50;3.00;;;3.00;;
63378;SDS011;49509;54.996;73.270;2022-07-04T05:13:16;2.80;;;2.80;;
63378;SDS011;49509;54.996;73.270;2022-07-04T05:15:43;3.80;;;3.80;;
63378;SDS011;49509;54.996;73.270;2022-07-04T05:18:09;8.00;;;6.00;;
63378;SDS011;49509;54.996;73.270;2022-07-04T05:20:39;7.00;;;7.00;;
63378;SDS011;49509;54.996;73.270;2022-07-04T05:23:06;3.60;;;3.60;;
63378;SDS011;49509;54.996;73.270;2022-07-04T05:25:32;3.00;;;3.00;;
63378;SDS011;49509;54.996;73.270;2022-07-04T05:28:00;2.20;;;2.20;;
63378;SDS011;49509;54.996;73.270;2022-07-04T05:30:26;4.40;;;4.40;;
63378;SDS011;49509;54.996;73.270;2022-07-04T05:32:53;2.60;;;2.60;;
63378;SDS011;49509;54.996;73.270;2022-07-04T05:35:19;2.60;;;2.60;;
63378;SDS011;49509;54.996;73.270;2022-07-04T05:37:46;3.20;;;3.20;;
63378;SDS011;49509;54.996;73.270;2022-07-04T05:40:12;3.00;;;3.00;;
63378;SDS011;49509;54.996;73.270;2022-07-04T05:42:38;8.40;;;8.20;;
63378;SDS011;49509;54.996;73.270;2022-07-04T05:45:06;4.40;;;4.00;;
63378;SDS011;49509;54.996;73.270;2022-07-04T05:47:37;4.00;;;4.00;;
63378;SDS011;49509;54.996;73.270;2022-07-04T05:50:03;2.20;;;2.20;;
63378;SDS011;49509;54.996;73.270;2022-07-04T05:52:30;3.00;;;3.00;;
63378;SDS011;49509;54.996;73.270;2022-07-04T05:54:56;3.80;;;3.40;;
63378;SDS011;49509;54.996;73.270;2022-07-04T05:57:22;1.40;;;1.40;;
63378;SDS011;49509;54.996;73.270;2022-07-04T05:59:59;3.20;;;2.60;;
63378;SDS011;49509;54.996;73.270;2022-07-04T06:02:26;4.00;;;4.00;;
63378;SDS011;49509;54.996;73.270;2022-07-04T06:04:52;3.00;;;3.00;;
63378;SDS011;49509;54.996;73.270;2022-07-04T06:07:18;3.00;;;3.00;;
63378;SDS011;49509;54.996;73.270;2022-07-04T06:09:45;3.80;;;3.20;;
63378;SDS011;49509;54.996;73.270;2022-07-04T06:12:21;2.20;;;2.20;;
63378;SDS011;49509;54.996;73.270;2022-07-04T06:14:47;3.40;;;3.40;;
63378;SDS011;49509;54.996;73.270;2022-07-04T06:17:14;2.80;;;2.80;;
63378;SDS011;49509;54.996;73.270;2022-07-04T06:19:45;2.40;;;2.40;;
63378;SDS011;49509;54.996;73.270;2022-07-04T06:22:12;4.00;;;4.00;;
63378;SDS011;49509;54.996;73.270;2022-07-04T06:24:38;0.80;;;0.80;;
63378;SDS011;49509;54.996;73.270;2022-07-04T06:27:06;4.60;;;4.40;;
63378;SDS011;49509;54.996;73.270;2022-07-04T06:29:32;3.00;;;3.00;;
63378;SDS011;49509;54.996;73.270;2022-07-04T06:31:58;2.60;;;2.60;;
63378;SDS011;49509;54.996;73.270;2022-07-04T06:34:25;2.20;;;2.20;;
63378;SDS011;49509;54.996;73.270;2022-07-04T06:37:11;5.00;;;4.40;;
63378;SDS011;49509;54.996;73.270;2022-07-04T06:39:37;4.60;;;4.60;;
63378;SDS011;49509;54.996;73.270;2022-07-04T06:42:04;3.80;;;3.80;;
63378;SDS011;49509;54.996;73.270;2022-07-04T06:44:30;3.00;;;3.00;;
63378;SDS011;49509;54.996;73.270;2022-07-04T06:47:02;6.40;;;6.00;;
63378;SDS011;49509;54.996;73.270;2022-07-04T06:49:29;2.80;;;2.80;;
63378;SDS011;49509;54.996;73.270;2022-07-04T06:51:56;3.80;;;3.80;;
63378;SDS011;49509;54.996;73.270;2022-07-04T06:54:32;4.00;;;4.00;;
63378;SDS011;49509;54.996;73.270;2022-07-04T06:56:59;5.40;;;5.40;;
63378;SDS011;49509;54.996;73.270;2022-07-04T06:59:25;3.80;;;3.80;;
63378;SDS011;49509;54.996;73.270;2022-07-04T07:01:56;3.80;;;3.80;;
63378;SDS011;49509;54.996;73.270;2022-07-04T07:04:27;6.20;;;6.00;;
63378;SDS011;49509;54.996;73.270;2022-07-04T07:06:54;4.40;;;4.40;;
63378;SDS011;49509;54.996;73.270;2022-07-04T07:09:25;4.20;;;2.80;;
63378;SDS011;49509;54.996;73.270;2022-07-04T07:11:52;4.60;;;4.60;;
63378;SDS011;49509;54.996;73.270;2022-07-04T07:14:20;4.00;;;4.00;;
63378;SDS011;49509;54.996;73.270;2022-07-04T07:16:46;5.20;;;5.20;;
63378;SDS011;49509;54.996;73.270;2022-07-04T07:19:13;4.20;;;4.20;;
63378;SDS011;49509;54.996;73.270;2022-07-04T07:21:49;5.00;;;5.00;;
63378;SDS011;49509;54.996;73.270;2022-07-04T07:24:15;6.60;;;6.60;;
63378;SDS011;49509;54.996;73.270;2022-07-04T07:26:42;3.60;;;3.00;;
63378;SDS011;49509;54.996;73.270;2022-07-04T07:29:15;6.20;;;4.60;;
63378;SDS011;49509;54.996;73.270;2022-07-04T07:31:42;7.60;;;6.80;;
63378;SDS011;49509;54.996;73.270;2022-07-04T07:34:08;10.20;;;9.00;;
63378;SDS011;49509;54.996;73.270;2022-07-04T07:36:35;7.20;;;7.00;;
63378;SDS011;49509;54.996;73.270;2022-07-04T07:39:07;5.60;;;5.60;;
63378;SDS011;49509;54.996;73.270;2022-07-04T07:41:33;8.60;;;6.00;;
63378;SDS011;49509;54.996;73.270;2022-07-04T07:44:01;6.60;;;6.60;;
63378;SDS011;49509;54.996;73.270;2022-07-04T07:46:27;7.20;;;6.20;;
63378;SDS011;49509;54.996;73.270;2022-07-04T07:48:54;5.20;;;5.00;;
63378;SDS011;49509;54.996;73.270;2022-07-04T07:51:20;5.40;;;5.40;;
63378;SDS011;49509;54.996;73.270;2022-07-04T07:53:47;4.00;;;4.00;;
63378;SDS011;49509;54.996;73.270;2022-07-04T07:56:14;5.00;;;5.00;;
63378;SDS011;49509;54.996;73.270;2022-07-04T07:58:40;3.60;;;3.60;;
63378;SDS011;49509;54.996;73.270;2022-07-04T08:01:07;4.60;;;4.60;;
63378;SDS011;49509;54.996;73.270;2022-07-04T08:03:34;4.60;;;4.60;;
63378;SDS011;49509;54.996;73.270;2022-07-04T08:06:19;3.40;;;2.80;;
63378;SDS011;49509;54.996;73.270;2022-07-04T08:08:45;6.80;;;6.60;;
63378;SDS011;49509;54.996;73.270;2022-07-04T08:11:14;9.00;;;7.00;;
63378;SDS011;49509;54.996;73.270;2022-07-04T08:13:40;7.20;;;6.20;;
63378;SDS011;49509;54.996;73.270;2022-07-04T08:16:07;5.00;;;5.00;;
63378;SDS011;49509;54.996;73.270;2022-07-04T08:18:34;4.60;;;4.60;;
63378;SDS011;49509;54.996;73.270;2022-07-04T08:21:01;5.60;;;5.00;;
63378;SDS011;49509;54.996;73.270;2022-07-04T08:23:28;5.00;;;5.00;;
63378;SDS011;49509;54.996;73.270;2022-07-04T08:25:55;4.20;;;4.20;;
63378;SDS011;49509;54.996;73.270;2022-07-04T08:28:27;6.20;;;6.20;;
63378;SDS011;49509;54.996;73.270;2022-07-04T08:30:54;4.00;;;4.00;;
63378;SDS011;49509;54.996;73.270;2022-07-04T08:33:23;4.00;;;4.00;;
63378;SDS011;49509;54.996;73.270;2022-07-04T08:35:50;5.00;;;5.00;;
63378;SDS011;49509;54.996;73.270;2022-07-04T08:38:17;6.40;;;5.40;;
63378;SDS011;49509;54.996;73.270;2022-07-04T08:40:43;3.00;;;3.00;;
63378;SDS011;49509;54.996;73.270;2022-07-04T08:43:16;6.40;;;4.80;;
63378;SDS011;49509;54.996;73.270;2022-07-04T08:45:46;7.20;;;6.00;;
63378;SDS011;49509;54.996;73.270;2022-07-04T08:48:14;6.00;;;6.00;;
63378;SDS011;49509;54.996;73.270;2022-07-04T08:50:51;8.20;;;8.20;;
63378;SDS011;49509;54.996;73.270;2022-07-04T08:53:19;5.60;;;5.60;;
63378;SDS011;49509;54.996;73.270;2022-07-04T08:55:47;7.60;;;7.60;;
63378;SDS011;49509;54.996;73.270;2022-07-04T08:58:32;5.20;;;5.20;;
63378;SDS011;49509;54.996;73.270;2022-07-04T09:01:03;4.00;;;4.00;;
63378;SDS011;49509;54.996;73.270;2022-07-04T09:03:30;4.00;;;3.60;;
63378;SDS011;49509;54.996;73.270;2022-07-04T09:05:57;6.20;;;6.20;;
63378;SDS011;49509;54.996;73.270;2022-07-04T09:08:24;4.80;;;4.00;;
63378;SDS011;49509;54.996;73.270;2022-07-04T09:10:52;6.00;;;6.00;;
63378;SDS011;49509;54.996;73.270;2022-07-04T09:13:19;5.00;;;5.00;;
63378;SDS011;49509;54.996;73.270;2022-07-04T09:15:47;6.80;;;6.20;;
63378;SDS011;49509;54.996;73.270;2022-07-04T09:20:48;5.20;;;5.20;;
63378;SDS011;49509;54.996;73.270;2022-07-04T09:23:25;8.20;;;7.40;;
63378;SDS011;49509;54.996;73.270;2022-07-04T09:28:37;5.80;;;5.80;;
63378;SDS011;49509;54.996;73.270;2022-07-04T09:31:15;14.80;;;11.40;;
63378;SDS011;49509;54.996;73.270;2022-07-04T09:36:18;6.60;;;6.60;;
63378;SDS011;49509;54.996;73.270;2022-07-04T09:39:06;9.60;;;9.60;;
63378;SDS011;49509;54.996;73.270;2022-07-04T09:41:49;5.40;;;5.40;;
63378;SDS011;49509;54.996;73.270;2022-07-04T09:44:15;5.00;;;5.00;;
63378;SDS011;49509;54.996;73.270;2022-07-04T09:46:42;5.00;;;5.00;;
63378;SDS011;49509;54.996;73.270;2022-07-04T09:49:12;5.00;;;4.20;;
63378;SDS011;49509;54.996;73.270;2022-07-04T09:51:45;5.20;;;4.20;;
63378;SDS011;49509;54.996;73.270;2022-07-04T09:56:55;5.60;;;5.20;;
63378;SDS011;49509;54.996;73.270;2022-07-04T09:59:23;7.40;;;6.00;;
63378;SDS011;49509;54.996;73.270;2022-07-04T10:01:50;4.00;;;4.00;;
63378;SDS011;49509;54.996;73.270;2022-07-04T10:04:17;6.80;;;5.20;;
63378;SDS011;49509;54.996;73.270;2022-07-04T10:06:47;3.00;;;3.00;;
63378;SDS011;49509;54.996;73.270;2022-07-04T10:09:14;6.00;;;4.80;;
63378;SDS011;49509;54.996;73.270;2022-07-04T10:11:42;40.25;;;34.50;;
63378;SDS011;49509;54.996;73.270;2022-07-04T10:14:10;23.75;;;21.25;;
63378;SDS011;49509;54.996;73.270;2022-07-04T10:16:38;14.75;;;14.75;;
63378;SDS011;49509;54.996;73.270;2022-07-04T10:19:06;13.00;;;12.80;;
63378;SDS011;49509;54.996;73.270;2022-07-04T10:21:33;10.80;;;10.00;;
63378;SDS011;49509;54.996;73.270;2022-07-04T10:24:08;8.80;;;8.80;;
63378;SDS011;49509;54.996;73.270;2022-07-04T10:26:34;7.20;;;7.20;;
63378;SDS011;49509;54.996;73.270;2022-07-04T10:29:01;10.20;;;8.80;;
63378;SDS011;49509;54.996;73.270;2022-07-04T10:31:34;8.80;;;8.40;;
63378;SDS011;49509;54.996;73.270;2022-07-04T10:34:01;6.00;;;6.00;;
63378;SDS011;49509;54.996;73.270;2022-07-04T10:36:28;7.00;;;6.00;;
63378;SDS011;49509;54.996;73.270;2022-07-04T10:39:00;6.00;;;5.00;;
63378;SDS011;49509;54.996;73.270;2022-07-04T10:41:28;5.00;;;5.00;;
63378;SDS011;49509;54.996;73.270;2022-07-04T10:46:30;4.40;;;4.00;;
63378;SDS011;49509;54.996;73.270;2022-07-04T10:51:42;4.00;;;4.00;;
63378;SDS011;49509;54.996;73.270;2022-07-04T10:59:10;8.00;;;6.80;;
63378;SDS011;49509;54.996;73.270;2022-07-04T11:01:37;9.40;;;8.20;;
63378;SDS011;49509;54.996;73.270;2022-07-04T11:04:04;9.00;;;6.80;;
63378;SDS011;49509;54.996;73.270;2022-07-04T11:09:14;7.80;;;7.80;;
63378;SDS011;49509;54.996;73.270;2022-07-04T11:11:51;7.20;;;7.20;;
63378;SDS011;49509;54.996;73.270;2022-07-04T11:16:57;9.60;;;9.00;;
63378;SDS011;49509;54.996;73.270;2022-07-04T11:19:23;7.60;;;7.60;;
63378;SDS011;49509;54.996;73.270;2022-07-04T11:21:55;9.80;;;9.40;;
63378;SDS011;49509;54.996;73.270;2022-07-04T11:24:31;8.20;;;8.20;;
63378;SDS011;49509;54.996;73.270;2022-07-04T11:26:58;6.20;;;5.20;;
63378;SDS011;49509;54.996;73.270;2022-07-04T11:29:25;8.80;;;8.80;;
63378;SDS011;49509;54.996;73.270;2022-07-04T11:31:57;8.00;;;8.00;;
63378;SDS011;49509;54.996;73.270;2022-07-04T11:34:32;8.80;;;8.20;;
63378;SDS011;49509;54.996;73.270;2022-07-04T11:37:01;16.80;;;15.40;;
63378;SDS011;49509;54.996;73.270;2022-07-04T11:39:28;15.80;;;14.80;;
63378;SDS011;49509;54.996;73.270;2022-07-04T11:41:55;19.25;;;18.25;;
63378;SDS011;49509;54.996;73.270;2022-07-04T11:44:40;18.00;;;18.00;;
63378;SDS011;49509;54.996;73.270;2022-07-04T11:47:32;16.40;;;16.20;;
63378;SDS011;49509;54.996;73.270;2022-07-04T11:50:00;9.20;;;9.20;;
63378;SDS011;49509;54.996;73.270;2022-07-04T11:54:53;12.40;;;11.60;;
63378;SDS011;49509;54.996;73.270;2022-07-04T11:59:57;10.40;;;9.80;;
63378;SDS011;49509;54.996;73.270;2022-07-04T12:02:33;8.80;;;8.80;;
63378;SDS011;49509;54.996;73.270;2022-07-04T12:05:11;9.60;;;9.60;;
63378;SDS011;49509;54.996;73.270;2022-07-04T12:07:39;9.60;;;9.60;;
63378;SDS011;49509;54.996;73.270;2022-07-04T12:10:13;9.00;;;9.00;;
63378;SDS011;49509;54.996;73.270;2022-07-04T12:12:56;9.80;;;8.80;;
63378;SDS011;49509;54.996;73.270;2022-07-04T12:15:23;6.20;;;6.20;;
63378;SDS011;49509;54.996;73.270;2022-07-04T12:17:51;10.00;;;8.80;;
63378;SDS011;49509;54.996;73.270;2022-07-04T12:20:19;9.40;;;8.20;;
63378;SDS011;49509;54.996;73.270;2022-07-04T12:22:51;14.50;;;11.50;;
63378;SDS011;49509;54.996;73.270;2022-07-04T12:25:28;11.60;;;10.40;;
63378;SDS011;49509;54.996;73.270;2022-07-04T12:27:56;8.80;;;8.80;;
63378;SDS011;49509;54.996;73.270;2022-07-04T12:30:25;9.00;;;8.60;;
63378;SDS011;49509;54.996;73.270;2022-07-04T12:32:56;9.50;;;9.00;;
63378;SDS011;49509;54.996;73.270;2022-07-04T12:38:11;8.00;;;8.00;;
63378;SDS011;49509;54.996;73.270;2022-07-04T12:40:51;7.00;;;7.00;;
63378;SDS011;49509;54.996;73.270;2022-07-04T12:46:09;7.20;;;7.00;;
63378;SDS011;49509;54.996;73.270;2022-07-04T12:48:36;9.40;;;8.00;;
63378;SDS011;49509;54.996;73.270;2022-07-04T12:51:13;8.40;;;7.00;;
63378;SDS011;49509;54.996;73.270;2022-07-04T12:53:42;8.75;;;8.25;;
63378;SDS011;49509;54.996;73.270;2022-07-04T12:56:09;9.00;;;9.00;;
63378;SDS011;49509;54.996;73.270;2022-07-04T12:58:36;7.00;;;7.00;;
63378;SDS011;49509;54.996;73.270;2022-07-04T13:01:03;8.75;;;8.75;;
63378;SDS011;49509;54.996;73.270;2022-07-04T13:03:29;8.00;;;7.00;;
63378;SDS011;49509;54.996;73.270;2022-07-04T13:05:56;6.20;;;6.20;;
63378;SDS011;49509;54.996;73.270;2022-07-04T13:08:23;8.60;;;7.60;;
63378;SDS011;49509;54.996;73.270;2022-07-04T13:10:50;8.00;;;8.00;;
63378;SDS011;49509;54.996;73.270;2022-07-04T13:13:36;8.00;;;7.75;;
63378;SDS011;49509;54.996;73.270;2022-07-04T13:16:03;7.50;;;6.00;;
63378;SDS011;49509;54.996;73.270;2022-07-04T13:18:30;7.50;;;7.50;;
63378;SDS011;49509;54.996;73.270;2022-07-04T13:20:57;8.00;;;8.00;;
63378;SDS011;49509;54.996;73.270;2022-07-04T13:23:23;13.75;;;13.00;;
63378;SDS011;49509;54.996;73.270;2022-07-04T13:25:51;9.25;;;8.00;;
63378;SDS011;49509;54.996;73.270;2022-07-04T13:28:22;6.00;;;6.00;;
63378;SDS011;49509;54.996;73.270;2022-07-04T13:30:49;5.25;;;5.25;;
63378;SDS011;49509;54.996;73.270;2022-07-04T13:33:16;6.50;;;6.00;;
63378;SDS011;49509;54.996;73.270;2022-07-04T13:35:43;6.50;;;6.50;;
63378;SDS011;49509;54.996;73.270;2022-07-04T13:38:10;8.50;;;7.25;;
63378;SDS011;49509;54.996;73.270;2022-07-04T13:40:36;5.00;;;5.00;;
63378;SDS011;49509;54.996;73.270;2022-07-04T13:43:03;5.50;;;5.50;;
63378;SDS011;49509;54.996;73.270;2022-07-04T13:45:35;4.25;;;4.25;;
63378;SDS011;49509;54.996;73.270;2022-07-04T13:48:02;6.50;;;6.50;;
63378;SDS011;49509;54.996;73.270;2022-07-04T13:50:29;6.40;;;6.40;;
63378;SDS011;49509;54.996;73.270;2022-07-04T13:53:06;8.40;;;7.40;;
63378;SDS011;49509;54.996;73.270;2022-07-04T13:55:34;6.50;;;6.00;;
63378;SDS011;49509;54.996;73.270;2022-07-04T13:58:04;5.40;;;5.40;;
63378;SDS011;49509;54.996;73.270;2022-07-04T14:00:31;5.40;;;5.40;;
63378;SDS011;49509;54.996;73.270;2022-07-04T14:02:58;6.50;;;6.00;;
63378;SDS011;49509;54.996;73.270;2022-07-04T14:05:25;5.80;;;5.80;;
63378;SDS011;49509;54.996;73.270;2022-07-04T14:07:52;6.75;;;6.00;;
63378;SDS011;49509;54.996;73.270;2022-07-04T14:10:18;3.00;;;3.00;;
63378;SDS011;49509;54.996;73.270;2022-07-04T14:12:45;7.00;;;6.20;;
63378;SDS011;49509;54.996;73.270;2022-07-04T14:15:12;7.00;;;7.00;;
63378;SDS011;49509;54.996;73.270;2022-07-04T14:17:39;5.20;;;4.20;;
63378;SDS011;49509;54.996;73.270;2022-07-04T14:20:09;5.75;;;5.00;;
63378;SDS011;49509;54.996;73.270;2022-07-04T14:22:39;7.25;;;6.25;;
63378;SDS011;49509;54.996;73.270;2022-07-04T14:25:15;5.25;;;5.25;;
63378;SDS011;49509;54.996;73.270;2022-07-04T14:27:42;4.75;;;4.75;;
63378;SDS011;49509;54.996;73.270;2022-07-04T14:30:09;5.75;;;5.50;;
63378;SDS011;49509;54.996;73.270;2022-07-04T14:32:35;8.00;;;8.00;;
63378;SDS011;49509;54.996;73.270;2022-07-04T14:35:02;7.00;;;7.00;;
63378;SDS011;49509;54.996;73.270;2022-07-04T14:37:29;7.50;;;5.75;;
63378;SDS011;49509;54.996;73.270;2022-07-04T14:39:56;6.50;;;6.50;;
63378;SDS011;49509;54.996;73.270;2022-07-04T14:42:22;6.50;;;5.75;;
63378;SDS011;49509;54.996;73.270;2022-07-04T14:44:49;7.00;;;7.00;;
63378;SDS011;49509;54.996;73.270;2022-07-04T14:47:15;7.50;;;7.50;;
63378;SDS011;49509;54.996;73.270;2022-07-04T14:49:42;6.50;;;5.00;;
63378;SDS011;49509;54.996;73.270;2022-07-04T14:52:10;5.40;;;5.40;;
63378;SDS011;49509;54.996;73.270;2022-07-04T14:54:37;7.80;;;7.20;;
63378;SDS011;49509;54.996;73.270;2022-07-04T14:57:04;7.00;;;7.00;;
63378;SDS011;49509;54.996;73.270;2022-07-04T14:59:33;5.00;;;5.00;;
63378;SDS011;49509;54.996;73.270;2022-07-04T15:02:06;8.00;;;7.50;;
63378;SDS011;49509;54.996;73.270;2022-07-04T15:04:33;5.75;;;5.75;;
63378;SDS011;49509;54.996;73.270;2022-07-04T15:06:59;9.50;;;7.00;;
63378;SDS011;49509;54.996;73.270;2022-07-04T15:09:26;6.50;;;6.50;;
63378;SDS011;49509;54.996;73.270;2022-07-04T15:11:52;7.20;;;6.20;;
63378;SDS011;49509;54.996;73.270;2022-07-04T15:14:19;7.80;;;7.80;;
63378;SDS011;49509;54.996;73.270;2022-07-04T15:16:51;7.80;;;6.80;;